createdAt,value
2017-11-25T00:01:25.947Z,74.20
2017-11-25T00:03:53.489Z,74.20
2017-11-25T00:06:21.098Z,74.60
2017-11-25T00:08:48.673Z,74.60
2017-11-25T00:11:17.204Z,74.70
2017-11-25T00:13:44.758Z,74.70
2017-11-25T00:16:12.324Z,74.90
2017-11-25T00:18:39.866Z,75.00
2017-11-25T00:21:07.449Z,74.80
2017-11-25T00:23:34.988Z,74.80
2017-11-25T00:26:02.520Z,74.70
2017-11-25T00:28:30.871Z,74.50
2017-11-25T00:30:58.403Z,74.50
2017-11-25T00:33:25.953Z,74.50
2017-11-25T00:35:54.065Z,74.30
2017-11-25T00:38:21.611Z,74.30
2017-11-25T00:40:49.154Z,74.30
2017-11-25T00:43:16.728Z,74.20
2017-11-25T00:45:44.254Z,74.30
2017-11-25T00:48:11.784Z,74.50
2017-11-25T00:50:39.381Z,74.50
2017-11-25T00:53:06.921Z,74.80
2017-11-25T00:55:34.461Z,74.90
2017-11-25T00:58:02.056Z,75.00
2017-11-25T01:00:29.614Z,75.00
2017-11-25T01:02:57.149Z,74.70
2017-11-25T01:05:24.704Z,74.80
2017-11-25T01:07:52.994Z,74.60
2017-11-25T01:10:20.535Z,74.50
2017-11-25T01:12:48.122Z,74.50
2017-11-25T01:15:16.520Z,74.60
2017-11-25T01:17:44.093Z,74.50
2017-11-25T01:20:11.695Z,74.90
2017-11-25T01:22:39.237Z,74.70
2017-11-25T01:25:06.783Z,74.70
2017-11-25T01:27:34.337Z,74.60
2017-11-25T01:30:01.869Z,74.90
2017-11-25T01:32:29.397Z,74.90
2017-11-25T01:34:57.024Z,75.20
2017-11-25T01:37:25.636Z,75.90
2017-11-25T01:39:53.173Z,75.10
2017-11-25T01:42:21.514Z,75.40
2017-11-25T01:44:49.042Z,75.40
2017-11-25T01:47:16.576Z,75.70
2017-11-25T01:49:44.917Z,75.90
2017-11-25T01:52:12.468Z,75.90
2017-11-25T01:54:40.014Z,76.40
2017-11-25T01:57:07.596Z,76.50
2017-11-25T01:59:35.139Z,76.30
2017-11-25T02:02:02.673Z,76.20
2017-11-25T02:04:30.309Z,76.40
2017-11-25T02:06:58.680Z,77.00
2017-11-25T02:09:26.977Z,77.30
2017-11-25T02:11:54.542Z,77.30
2017-11-25T02:14:22.086Z,77.40
2017-11-25T02:16:49.620Z,77.40
2017-11-25T02:19:17.220Z,77.60
2017-11-25T02:21:44.749Z,77.50
2017-11-25T02:24:13.989Z,77.80
2017-11-25T02:26:41.572Z,77.80
2017-11-25T02:29:09.109Z,77.90
2017-11-25T02:31:36.640Z,78.00
2017-11-25T02:34:04.198Z,78.00
2017-11-25T02:36:31.734Z,78.10
2017-11-25T02:39:00.329Z,78.80
2017-11-25T02:41:28.195Z,78.20
2017-11-25T02:43:55.732Z,78.30
2017-11-25T02:46:23.279Z,78.40
2017-11-25T02:48:50.857Z,78.40
2017-11-25T02:51:19.158Z,78.80
2017-11-25T02:53:46.705Z,78.10
2017-11-25T02:56:20.395Z,78.00
2017-11-25T03:07:57.988Z,78.00
2017-11-25T03:10:25.518Z,79.40
2017-11-25T03:12:53.037Z,79.60
2017-11-25T03:15:20.617Z,79.50
2017-11-25T03:17:48.967Z,79.10
2017-11-25T03:20:16.524Z,79.10
2017-11-25T03:22:44.082Z,78.80
2017-11-25T03:25:11.617Z,78.70
2017-11-25T03:27:39.165Z,78.40
2017-11-25T03:30:06.761Z,78.30
2017-11-25T03:32:34.297Z,78.20
2017-11-25T03:35:01.829Z,78.40
2017-11-25T03:37:29.393Z,78.40
2017-11-25T03:39:57.253Z,78.50
2017-11-25T03:42:24.779Z,78.60
2017-11-25T03:44:52.331Z,78.40
2017-11-25T03:47:19.872Z,78.50
2017-11-25T03:49:48.168Z,78.40
2017-11-25T03:52:16.505Z,78.40
2017-11-25T03:54:44.046Z,78.50
2017-11-25T03:57:11.581Z,78.50
2017-11-25T03:59:39.901Z,78.50
2017-11-25T04:02:07.432Z,78.40
2017-11-25T04:04:34.970Z,78.20
2017-11-25T04:07:03.303Z,78.60
2017-11-25T04:09:30.837Z,78.20
2017-11-25T04:11:58.377Z,78.20
2017-11-25T04:14:25.976Z,78.20
2017-11-25T04:16:53.527Z,78.40
2017-11-25T04:19:21.056Z,78.50
2017-11-25T04:21:49.393Z,78.60
2017-11-25T04:24:16.951Z,78.60
2017-11-25T04:26:44.480Z,78.50
2017-11-25T04:29:12.050Z,78.90
2017-11-25T04:31:39.593Z,78.90
2017-11-25T04:34:07.132Z,78.90
2017-11-25T04:36:34.738Z,78.90
2017-11-25T04:39:02.281Z,79.10
2017-11-25T04:41:29.812Z,79.30
2017-11-25T04:43:58.142Z,79.80
2017-11-25T04:46:25.684Z,79.90
2017-11-25T04:48:53.238Z,79.70
2017-11-25T04:51:20.813Z,79.50
2017-11-25T04:53:48.360Z,79.40
2017-11-25T04:56:16.397Z,79.30
2017-11-25T04:58:44.760Z,78.90
2017-11-25T05:01:14.024Z,78.60
2017-11-25T05:03:41.557Z,78.50
2017-11-25T05:06:09.118Z,78.00
2017-11-25T05:08:36.649Z,77.60
2017-11-25T05:11:04.180Z,77.10
2017-11-25T05:13:31.736Z,76.80
2017-11-25T05:15:59.313Z,76.50
2017-11-25T05:18:27.624Z,76.40
2017-11-25T05:20:55.231Z,76.40
2017-11-25T05:23:22.768Z,76.40
2017-11-25T05:25:50.301Z,76.70
2017-11-25T05:28:17.883Z,75.80
2017-11-25T05:30:45.430Z,75.70
2017-11-25T05:33:25.139Z,75.40
2017-11-25T05:38:26.437Z,75.00
2017-11-25T05:40:54.073Z,75.40
2017-11-25T05:43:21.966Z,75.60
2017-11-25T05:45:49.521Z,75.60
2017-11-25T05:48:17.073Z,75.60
2017-11-25T05:50:44.808Z,75.40
2017-11-25T05:53:14.057Z,75.30
2017-11-25T05:55:41.600Z,75.20
2017-11-25T05:58:09.162Z,75.40
2017-11-25T06:00:36.748Z,75.60
2017-11-25T06:03:04.301Z,75.70
2017-11-25T06:05:31.864Z,75.80
2017-11-25T06:07:59.486Z,75.60
2017-11-25T06:10:27.080Z,75.30
2017-11-25T06:12:54.609Z,75.40
2017-11-25T06:15:22.176Z,75.50
2017-11-25T06:17:49.725Z,75.50
2017-11-25T06:20:17.276Z,75.10
2017-11-25T06:22:44.888Z,74.80
2017-11-25T06:25:12.445Z,74.80
2017-11-25T06:27:40.001Z,75.10
2017-11-25T06:30:07.679Z,75.30
2017-11-25T06:32:35.337Z,75.40
2017-11-25T06:35:03.043Z,75.40
2017-11-25T06:37:30.607Z,75.00
2017-11-25T06:39:58.257Z,74.90
2017-11-25T06:42:25.784Z,74.80
2017-11-25T06:44:53.724Z,74.80
2017-11-25T06:47:22.105Z,74.40
2017-11-25T06:49:49.637Z,74.40
2017-11-25T06:52:17.248Z,74.40
2017-11-25T06:54:44.785Z,74.50
2017-11-25T06:57:12.317Z,74.80
2017-11-25T06:59:39.884Z,74.80
2017-11-25T07:02:08.180Z,74.90
2017-11-25T07:04:35.706Z,74.90
2017-11-25T07:07:03.376Z,74.70
2017-11-25T07:09:30.989Z,74.70
2017-11-25T07:11:59.377Z,75.10
2017-11-25T07:14:27.721Z,75.10
2017-11-25T07:16:55.343Z,75.10
2017-11-25T07:19:22.872Z,75.10
2017-11-25T07:21:51.314Z,74.70
2017-11-25T07:24:19.677Z,74.40
2017-11-25T07:26:47.523Z,74.40
2017-11-25T07:29:15.533Z,74.40
2017-11-25T07:31:43.849Z,74.70
2017-11-25T07:34:11.389Z,74.70
2017-11-25T07:36:39.713Z,75.00
2017-11-25T07:39:07.349Z,75.10
2017-11-25T07:41:34.877Z,74.70
2017-11-25T07:44:03.203Z,74.40
2017-11-25T07:46:31.180Z,74.30
2017-11-25T07:48:58.752Z,74.10
2017-11-25T07:51:26.369Z,74.10
2017-11-25T07:53:53.913Z,73.70
2017-11-25T07:56:22.292Z,73.60
2017-11-25T07:58:50.618Z,73.60
2017-11-25T08:01:18.152Z,73.60
2017-11-25T08:03:45.685Z,73.50
2017-11-25T08:06:26.562Z,73.70
2017-11-25T08:11:31.190Z,73.20
2017-11-25T08:13:59.488Z,73.50
2017-11-25T08:16:27.790Z,73.60
2017-11-25T08:18:55.380Z,73.60
2017-11-25T08:21:23.028Z,73.90
2017-11-25T08:23:50.547Z,74.60
2017-11-25T08:26:18.446Z,74.10
2017-11-25T08:28:46.163Z,74.00
2017-11-25T08:31:26.347Z,73.90
2017-11-25T08:36:26.402Z,73.30
2017-11-25T08:38:53.991Z,73.70
2017-11-25T08:41:21.526Z,73.80
2017-11-25T08:43:49.061Z,73.50
2017-11-25T08:46:16.620Z,73.00
2017-11-25T08:48:44.579Z,72.60
2017-11-25T08:51:12.145Z,71.50
2017-11-25T08:53:39.733Z,70.40
2017-11-25T08:56:07.426Z,70.80
2017-11-25T08:58:34.962Z,70.40
2017-11-25T09:01:02.529Z,69.30
2017-11-25T09:03:30.087Z,68.80
2017-11-25T09:05:57.717Z,68.60
2017-11-25T09:08:25.293Z,68.40
2017-11-25T09:10:52.829Z,67.90
2017-11-25T09:13:20.363Z,67.90
2017-11-25T09:15:47.940Z,70.30
2017-11-25T09:18:16.464Z,69.60
2017-11-25T09:20:44.820Z,70.10
2017-11-25T09:23:12.453Z,70.00
2017-11-25T09:25:40.045Z,70.20
2017-11-25T09:28:07.577Z,71.30
2017-11-25T09:30:35.144Z,70.90
2017-11-25T09:33:02.683Z,71.90
2017-11-25T09:35:30.236Z,71.40
2017-11-25T09:37:57.908Z,71.60
2017-11-25T09:40:25.520Z,71.20
2017-11-25T09:42:53.053Z,70.70
2017-11-25T09:45:20.816Z,69.80
2017-11-25T09:47:48.353Z,69.70
2017-11-25T09:50:20.468Z,69.30
2017-11-25T09:52:48.046Z,69.30
2017-11-25T09:55:16.483Z,66.20
2017-11-25T09:57:44.020Z,65.80
2017-11-25T10:00:11.612Z,64.90
2017-11-25T10:02:39.171Z,64.40
2017-11-25T10:05:06.707Z,64.80
2017-11-25T10:07:34.271Z,64.10
2017-11-25T10:10:01.832Z,63.90
2017-11-25T10:12:29.373Z,65.00
2017-11-25T10:14:56.941Z,66.70
2017-11-25T10:17:24.481Z,69.90
2017-11-25T10:19:52.076Z,70.80
2017-11-25T10:22:21.021Z,71.60
2017-11-25T10:24:48.597Z,72.40
2017-11-25T10:27:16.529Z,71.70
2017-11-25T10:29:44.873Z,73.60
2017-11-25T10:32:13.242Z,73.60
2017-11-25T10:34:40.777Z,76.00
2017-11-25T10:37:08.347Z,76.70
2017-11-25T10:39:39.727Z,77.40
2017-11-25T10:42:08.048Z,78.80
2017-11-25T10:44:35.644Z,78.70
2017-11-25T10:47:03.182Z,79.80
2017-11-25T10:49:30.725Z,80.50
2017-11-25T10:51:58.605Z,81.00
2017-11-25T10:54:26.145Z,81.10
2017-11-25T10:56:53.692Z,81.20
2017-11-25T10:59:21.277Z,81.40
2017-11-25T11:01:48.838Z,81.80
2017-11-25T11:04:20.078Z,82.00
2017-11-25T11:06:47.732Z,81.80
2017-11-25T11:09:16.765Z,80.20
2017-11-25T11:11:44.289Z,80.00
2017-11-25T11:14:11.845Z,79.60
2017-11-25T11:16:39.381Z,79.90
2017-11-25T11:19:07.672Z,80.20
2017-11-25T11:21:35.245Z,80.20
2017-11-25T11:24:02.787Z,80.20
2017-11-25T11:26:30.316Z,81.00
2017-11-25T11:28:58.702Z,81.50
2017-11-25T11:31:27.123Z,80.70
2017-11-25T11:33:54.659Z,80.60
2017-11-25T11:36:22.220Z,81.20
2017-11-25T11:38:49.750Z,81.80
2017-11-25T11:41:18.129Z,81.50
2017-11-25T11:43:45.700Z,81.70
2017-11-25T11:46:14.648Z,82.30
2017-11-25T11:48:42.189Z,83.20
2017-11-25T11:51:09.782Z,83.80
2017-11-25T11:53:37.538Z,84.60
2017-11-25T11:56:05.125Z,84.80
2017-11-25T11:58:32.687Z,85.10
2017-11-25T12:01:00.980Z,84.90
2017-11-25T12:03:28.517Z,84.90
2017-11-25T12:05:56.840Z,83.50
2017-11-25T12:08:24.378Z,83.50
2017-11-25T12:10:51.919Z,83.90
2017-11-25T12:13:19.518Z,83.20
2017-11-25T12:15:47.049Z,84.00
2017-11-25T12:18:25.456Z,84.60
2017-11-25T12:23:24.880Z,85.30
2017-11-25T12:25:52.493Z,86.10
2017-11-25T12:28:20.124Z,86.30
2017-11-25T12:30:48.192Z,86.70
2017-11-25T12:33:16.872Z,86.50
2017-11-25T12:35:44.445Z,87.00
2017-11-25T12:38:11.984Z,85.40
2017-11-25T12:40:39.556Z,86.30
2017-11-25T12:43:07.089Z,86.30
2017-11-25T12:45:34.626Z,86.50
2017-11-25T12:48:02.956Z,87.10
2017-11-25T12:50:30.524Z,87.10
2017-11-25T12:52:58.067Z,87.30
2017-11-25T12:55:25.888Z,88.20
2017-11-25T12:57:54.232Z,88.20
2017-11-25T13:00:21.902Z,88.20
2017-11-25T13:02:50.101Z,88.70
2017-11-25T13:05:19.091Z,88.80
2017-11-25T13:07:47.392Z,88.70
2017-11-25T13:10:15.637Z,88.60
2017-11-25T13:12:45.131Z,87.60
2017-11-25T13:15:13.635Z,87.60
2017-11-25T13:17:41.372Z,88.00
2017-11-25T13:20:08.922Z,88.30
2017-11-25T13:22:36.641Z,88.50
2017-11-25T13:25:04.241Z,88.50
2017-11-25T13:27:32.644Z,88.70
2017-11-25T13:30:00.263Z,88.00
2017-11-25T13:32:27.902Z,87.40
2017-11-25T13:34:55.713Z,87.40
2017-11-25T13:37:23.265Z,86.90
2017-11-25T13:39:50.941Z,87.60
2017-11-25T13:42:18.525Z,87.20
2017-11-25T13:44:46.136Z,87.00
2017-11-25T13:47:15.569Z,87.70
2017-11-25T13:49:43.103Z,88.10
2017-11-25T13:52:10.740Z,88.60
2017-11-25T13:54:38.318Z,88.30
2017-11-25T13:57:06.345Z,88.60
2017-11-25T13:59:34.638Z,88.80
2017-11-25T14:02:02.212Z,88.80
2017-11-25T14:04:29.746Z,88.50
2017-11-25T14:06:57.284Z,88.30
2017-11-25T14:09:24.836Z,87.90
2017-11-25T14:11:53.133Z,87.60
2017-11-25T14:14:20.665Z,87.70
2017-11-25T14:16:49.001Z,88.20
2017-11-25T14:19:16.551Z,88.20
2017-11-25T14:21:44.132Z,89.10
2017-11-25T14:24:11.711Z,89.50
2017-11-25T14:26:39.249Z,89.60
2017-11-25T14:29:06.772Z,89.70
2017-11-25T14:31:34.342Z,88.90
2017-11-25T14:34:01.873Z,88.60
2017-11-25T14:36:29.452Z,88.20
2017-11-25T14:38:57.046Z,88.60
2017-11-25T14:41:25.371Z,89.00
2017-11-25T14:43:52.910Z,89.00
2017-11-25T14:46:20.493Z,89.50
2017-11-25T14:48:48.776Z,89.60
2017-11-25T14:51:16.472Z,89.60
2017-11-25T14:53:44.028Z,89.70
2017-11-25T14:56:11.554Z,89.60
2017-11-25T14:58:39.104Z,90.30
2017-11-25T15:01:06.668Z,89.60
2017-11-25T15:03:34.441Z,89.50
2017-11-25T15:06:02.091Z,89.00
2017-11-25T15:08:32.548Z,89.00
2017-11-25T15:11:00.412Z,88.80
2017-11-25T15:13:27.948Z,89.00
2017-11-25T15:15:55.695Z,88.80
2017-11-25T15:18:23.241Z,89.00
2017-11-25T15:20:51.564Z,88.90
2017-11-25T15:23:19.162Z,88.70
2017-11-25T15:25:46.697Z,88.10
2017-11-25T15:28:16.512Z,88.50
2017-11-25T15:30:44.102Z,88.80
2017-11-25T15:33:11.642Z,88.60
2017-11-25T15:35:39.177Z,88.70
2017-11-25T15:38:06.746Z,88.40
2017-11-25T15:40:35.086Z,88.20
2017-11-25T15:43:02.673Z,88.20
2017-11-25T15:45:30.216Z,87.70
2017-11-25T15:47:58.677Z,87.00
2017-11-25T15:50:26.209Z,87.40
2017-11-25T15:52:53.800Z,87.20
2017-11-25T15:55:21.358Z,87.20
2017-11-25T15:57:48.887Z,87.50
2017-11-25T16:00:17.519Z,87.40
2017-11-25T16:02:45.124Z,87.40
2017-11-25T16:05:12.653Z,87.20
2017-11-25T16:07:40.196Z,86.80
2017-11-25T16:10:07.794Z,86.50
2017-11-25T16:12:35.342Z,87.00
2017-11-25T16:15:02.934Z,86.80
2017-11-25T16:17:31.229Z,86.40
2017-11-25T16:19:59.520Z,86.50
2017-11-25T16:22:27.076Z,86.50
2017-11-25T16:24:54.612Z,87.00
2017-11-25T16:27:22.904Z,87.00
2017-11-25T16:29:50.473Z,86.90
2017-11-25T16:32:18.000Z,87.10
2017-11-25T16:34:46.296Z,87.30
2017-11-25T16:37:15.535Z,87.40
2017-11-25T16:46:03.865Z,88.10
2017-11-25T16:48:32.293Z,88.00
2017-11-25T16:50:59.825Z,88.00
2017-11-25T16:53:27.417Z,87.70
2017-11-25T16:55:54.941Z,87.40
2017-11-25T16:58:22.482Z,87.70
2017-11-25T17:00:50.363Z,87.70
2017-11-25T17:03:18.043Z,87.40
2017-11-25T17:05:45.570Z,87.30
2017-11-25T17:08:14.565Z,87.40
2017-11-25T17:10:42.128Z,87.10
2017-11-25T17:13:09.714Z,87.80
2017-11-25T17:15:37.465Z,87.20
2017-11-25T17:18:05.549Z,87.40
2017-11-25T17:20:33.190Z,87.30
2017-11-25T17:23:00.767Z,87.50
2017-11-25T17:25:28.300Z,87.60
2017-11-25T17:27:56.539Z,87.30
2017-11-25T17:30:24.141Z,87.40
2017-11-25T17:32:51.669Z,87.10
2017-11-25T17:35:20.017Z,87.00
2017-11-25T17:37:47.618Z,86.70
2017-11-25T17:40:16.342Z,86.60
2017-11-25T17:42:43.876Z,86.60
2017-11-25T17:45:11.424Z,86.90
2017-11-25T17:47:39.728Z,86.50
2017-11-25T17:50:07.314Z,86.60
2017-11-25T17:52:34.884Z,86.60
2017-11-25T17:55:02.409Z,86.90
2017-11-25T17:57:29.937Z,86.50
2017-11-25T17:59:57.527Z,86.10
2017-11-25T18:02:26.193Z,86.30
2017-11-25T18:04:53.760Z,86.10
2017-11-25T18:07:21.369Z,86.10
2017-11-25T18:09:48.990Z,86.30
2017-11-25T18:12:16.557Z,86.60
2017-11-25T18:14:44.185Z,86.20
2017-11-25T18:17:12.489Z,86.20
2017-11-25T18:19:40.022Z,86.10
2017-11-25T18:22:07.933Z,86.10
2017-11-25T18:24:35.501Z,85.90
2017-11-25T18:27:03.079Z,86.00
2017-11-25T18:29:31.438Z,86.40
2017-11-25T18:31:58.967Z,85.70
2017-11-25T18:34:26.503Z,85.70
2017-11-25T18:36:54.098Z,85.70
2017-11-25T18:39:21.632Z,85.60
2017-11-25T18:41:49.189Z,85.60
2017-11-25T18:44:17.413Z,85.70
2017-11-25T18:46:44.945Z,85.70
2017-11-25T18:49:12.545Z,85.60
2017-11-25T18:51:40.128Z,85.50
2017-11-25T18:54:08.450Z,85.20
2017-11-25T18:56:35.998Z,85.20
2017-11-25T18:59:03.661Z,85.30
2017-11-25T19:01:32.032Z,84.90
2017-11-25T19:03:59.957Z,84.90
2017-11-25T19:06:27.575Z,84.60
2017-11-25T19:08:55.153Z,85.00
2017-11-25T19:11:22.693Z,84.90
2017-11-25T19:13:50.271Z,84.20
2017-11-25T19:16:17.814Z,84.40
2017-11-25T19:18:45.357Z,84.20
2017-11-25T19:21:14.643Z,84.10
2017-11-25T19:23:42.257Z,84.30
2017-11-25T19:26:09.799Z,83.90
2017-11-25T19:28:37.400Z,83.70
2017-11-25T19:31:04.949Z,84.30
2017-11-25T19:33:33.268Z,83.80
2017-11-25T19:36:00.926Z,83.80
2017-11-25T19:38:28.495Z,83.30
2017-11-25T19:40:56.041Z,84.10
2017-11-25T19:43:23.614Z,83.50
2017-11-25T19:45:51.167Z,83.10
2017-11-25T19:48:18.697Z,84.00
2017-11-25T19:50:46.453Z,83.80
2017-11-25T19:53:25.933Z,83.90
2017-11-25T19:58:41.571Z,85.60
2017-11-25T20:01:09.974Z,85.80
2017-11-25T20:03:37.539Z,85.80
2017-11-25T20:06:06.534Z,85.90
2017-11-25T20:08:34.114Z,86.10
2017-11-25T20:11:01.703Z,85.70
2017-11-25T20:13:29.299Z,86.30
2017-11-25T20:15:57.637Z,87.00
2017-11-25T20:18:25.171Z,87.00
2017-11-25T20:20:52.767Z,86.60
2017-11-25T20:23:20.299Z,87.40
2017-11-25T20:25:47.856Z,86.40
2017-11-25T20:28:16.576Z,86.10
2017-11-25T20:30:44.140Z,86.50
2017-11-25T20:33:12.446Z,87.20
2017-11-25T20:35:40.087Z,87.20
2017-11-25T20:38:08.384Z,88.10
2017-11-25T20:40:35.919Z,88.00
2017-11-25T20:43:03.569Z,88.10
2017-11-25T20:45:31.140Z,88.40
2017-11-25T20:47:59.493Z,89.60
2017-11-25T20:50:27.123Z,89.50
2017-11-25T20:52:54.656Z,89.40
2017-11-25T20:55:22.189Z,89.50
2017-11-25T20:57:50.525Z,89.70
2017-11-25T21:00:18.054Z,89.60
2017-11-25T21:02:45.625Z,90.00
2017-11-25T21:05:25.882Z,89.90
2017-11-25T21:10:32.993Z,89.80
2017-11-25T21:13:00.537Z,90.00
2017-11-25T21:15:28.140Z,90.00
2017-11-25T21:17:55.688Z,90.00
2017-11-25T21:20:23.276Z,89.70
2017-11-25T21:22:51.575Z,89.50
2017-11-25T21:25:19.133Z,89.50
2017-11-25T21:27:46.671Z,89.00
2017-11-25T21:30:26.050Z,88.70
2017-11-25T21:35:49.516Z,88.90
2017-11-25T21:38:17.044Z,89.40
2017-11-25T21:40:45.531Z,89.40
2017-11-25T21:43:14.658Z,89.30
2017-11-25T21:45:42.231Z,89.50
2017-11-25T21:48:09.881Z,89.10
2017-11-25T21:50:37.469Z,89.40
2017-11-25T21:53:05.036Z,88.60
2017-11-25T21:55:32.919Z,88.50
2017-11-25T21:58:00.562Z,87.60
2017-11-25T22:00:28.090Z,88.00
2017-11-25T22:02:55.744Z,87.70
2017-11-25T22:05:23.297Z,87.70
2017-11-25T22:07:50.873Z,87.50
2017-11-25T22:10:18.863Z,86.90
2017-11-25T22:12:46.817Z,87.40
2017-11-25T22:15:26.078Z,86.90
2017-11-25T22:26:53.732Z,86.50
2017-11-25T22:29:21.286Z,86.70
2017-11-25T22:31:48.833Z,86.90
2017-11-25T22:34:16.521Z,87.40
2017-11-25T22:36:44.050Z,87.80
2017-11-25T22:39:11.659Z,87.70
2017-11-25T22:41:39.218Z,87.70
2017-11-25T22:44:06.981Z,87.40
2017-11-25T22:46:34.513Z,87.40
2017-11-25T22:49:02.060Z,86.80
2017-11-25T22:51:29.597Z,86.30
2017-11-25T22:53:57.121Z,86.60
2017-11-25T22:56:24.828Z,86.20
2017-11-25T22:58:53.292Z,85.70
2017-11-25T23:01:21.601Z,86.10
2017-11-25T23:03:49.973Z,86.10
2017-11-25T23:06:17.774Z,86.10
2017-11-25T23:08:45.441Z,85.90
2017-11-25T23:11:14.591Z,86.00
2017-11-25T23:13:42.607Z,86.20
2017-11-25T23:16:10.235Z,85.80
2017-11-25T23:18:37.900Z,85.70
2017-11-25T23:21:05.532Z,85.20
2017-11-25T23:23:33.832Z,84.00
2017-11-25T23:26:01.392Z,84.00
2017-11-25T23:28:29.134Z,84.30
2017-11-25T23:30:56.689Z,83.70
2017-11-25T23:33:25.128Z,83.30
2017-11-25T23:35:52.762Z,83.30
2017-11-25T23:38:20.324Z,83.70
2017-11-25T23:40:47.914Z,84.40
2017-11-25T23:43:16.418Z,83.80
2017-11-25T23:45:43.952Z,83.70
2017-11-25T23:48:11.512Z,83.00
2017-11-25T23:50:39.036Z,83.50
2017-11-25T23:53:06.573Z,84.40
2017-11-25T23:55:34.884Z,84.60
2017-11-25T23:58:02.409Z,84.60
